Time;durP1;ratioP1;P1;durP2;ratioP2;P2;SDS_P1;SDS_P2;PMS_P1;PMS_P2;Temp;Humidity;BMP_temperature;BMP_pressure;BME280_temperature;BME280_humidity;BME280_pressure;Samples;Min_cycle;Max_cycle;Signal;HPM_P1;HPM_P2
2023/09/21 00:01:39;;;;;;;0.80;0.60;;;17.90;44.40;;;;;;5035071;28;20072;-64
2023/09/21 00:04:06;;;;;;;0.65;0.50;;;18.00;43.90;;;;;;5035038;28;20449;-62
2023/09/21 00:06:32;;;;;;;0.98;0.60;;;18.00;42.00;;;;;;5017089;28;20405;-63
2023/09/21 00:08:57;;;;;;;1.02;0.60;;;18.00;43.40;;;;;;5034659;28;20041;-63
2023/09/21 00:11:23;;;;;;;0.63;0.60;;;17.90;43.80;;;;;;5034989;28;20045;-63
2023/09/21 00:13:49;;;;;;;0.60;0.60;;;17.90;42.70;;;;;;5016810;28;20504;-63
2023/09/21 00:16:18;;;;;;;1.67;0.60;;;17.90;42.90;;;;;;5034450;28;20045;-63
2023/09/21 00:18:44;;;;;;;0.60;0.60;;;17.90;45.70;;;;;;5034500;28;20042;-63
2023/09/21 00:21:12;;;;;;;0.60;0.50;;;17.80;46.20;;;;;;5034742;28;20046;-63
2023/09/21 00:23:38;;;;;;;0.52;0.52;;;17.80;48.10;;;;;;5034726;28;20038;-63
2023/09/21 00:26:04;;;;;;;0.75;0.60;;;17.80;48.40;;;;;;5034369;28;20068;-63
2023/09/21 00:28:31;;;;;;;1.40;0.70;;;17.80;48.80;;;;;;5016806;28;20049;-65
2023/09/21 00:30:58;;;;;;;0.77;0.60;;;17.70;49.60;;;;;;5034556;28;20051;-63
2023/09/21 00:33:28;;;;;;;1.20;0.77;;;17.70;49.20;;;;;;5034137;28;20124;-63
2023/09/21 00:35:54;;;;;;;0.50;0.50;;;17.70;49.00;;;;;;5034188;28;20038;-63
2023/09/21 00:38:20;;;;;;;0.55;0.55;;;17.70;49.40;;;;;;5034469;28;20045;-63
2023/09/21 00:40:47;;;;;;;0.73;0.63;;;17.80;48.90;;;;;;5034417;28;20490;-63
2023/09/21 00:43:21;;;;;;;0.68;0.50;;;17.70;48.30;;;;;;5034055;28;20092;-63
2023/09/21 00:45:51;;;;;;;1.52;0.80;;;17.80;45.60;;;;;;5016292;28;20148;-63
2023/09/21 00:48:21;;;;;;;0.57;0.57;;;17.80;45.50;;;;;;5034281;28;20061;-63
2023/09/21 00:50:48;;;;;;;0.50;0.50;;;17.90;44.50;;;;;;5034150;28;20121;-63
2023/09/21 00:53:15;;;;;;;0.55;0.50;;;17.80;43.90;;;;;;5034077;28;20041;-63
2023/09/21 00:55:48;;;;;;;0.82;0.68;;;17.90;42.60;;;;;;5034166;28;20083;-63
2023/09/21 00:58:14;;;;;;;0.60;0.60;;;17.80;43.10;;;;;;5034133;28;20370;-64
2023/09/21 01:00:41;;;;;;;0.60;0.60;;;17.80;42.60;;;;;;5033765;28;20038;-63
2023/09/21 01:03:11;;;;;;;0.50;0.50;;;17.90;40.40;;;;;;5033711;28;20041;-63
2023/09/21 01:05:41;;;;;;;0.75;0.65;;;17.90;40.10;;;;;;5034045;28;20045;-63
2023/09/21 01:08:13;;;;;;;0.73;0.73;;;17.80;41.20;;;;;;5033660;28;20040;-63
2023/09/21 01:10:44;;;;;;;1.17;0.80;;;17.80;39.20;;;;;;5033799;28;20095;-63
2023/09/21 01:13:11;;;;;;;0.77;0.70;;;17.80;40.40;;;;;;5033794;28;20041;-63
2023/09/21 01:15:37;;;;;;;1.00;0.73;;;17.80;40.00;;;;;;5033071;28;20057;-63
2023/09/21 01:18:09;;;;;;;1.33;0.70;;;17.90;39.00;;;;;;5033838;28;20038;-68
2023/09/21 01:20:35;;;;;;;1.67;0.95;;;17.80;36.00;;;;;;5033708;28;20037;-67
2023/09/21 01:23:18;;;;;;;0.60;0.60;;;17.90;36.00;;;;;;5033551;28;20033;-67
2023/09/21 01:25:52;;;;;;;0.63;0.63;;;17.90;34.60;;;;;;5033625;28;20037;-67
2023/09/21 01:28:20;;;;;;;0.88;0.65;;;17.80;34.00;;;;;;5015889;28;20053;-67
2023/09/21 01:30:48;;;;;;;0.50;0.50;;;17.90;32.70;;;;;;5033456;28;20087;-66
2023/09/21 01:33:15;;;;;;;0.60;0.60;;;17.90;31.70;;;;;;5033432;28;20500;-69
2023/09/21 01:35:47;;;;;;;0.65;0.63;;;17.90;29.50;;;;;;5033187;28;20048;-67
2023/09/21 01:38:13;;;;;;;0.50;0.50;;;17.70;27.80;;;;;;5033341;28;20059;-67
2023/09/21 01:40:40;;;;;;;0.70;0.50;;;17.90;25.90;;;;;;5033428;28;20045;-67
2023/09/21 01:43:10;;;;;;;0.60;0.60;;;17.90;27.00;;;;;;5015406;28;20060;-67
2023/09/21 01:45:39;;;;;;;0.50;0.50;;;17.90;25.90;;;;;;5033328;28;20659;-67
2023/09/21 01:48:09;;;;;;;1.05;0.85;;;17.90;25.50;;;;;;5015367;28;20429;-67
2023/09/21 01:50:40;;;;;;;0.60;0.60;;;17.90;24.00;;;;;;5033266;28;20041;-67
2023/09/21 01:53:09;;;;;;;0.60;0.50;;;18.00;25.10;;;;;;5032860;28;20048;-67
2023/09/21 01:55:35;;;;;;;1.05;0.65;;;17.90;25.40;;;;;;5015484;28;20040;-67
2023/09/21 01:58:05;;;;;;;0.70;0.60;;;17.90;24.50;;;;;;5015430;28;20382;-68
2023/09/21 02:00:35;;;;;;;2.03;0.57;;;17.90;24.80;;;;;;5015144;28;20045;-70
2023/09/21 02:03:08;;;;;;;0.43;0.43;;;17.90;24.20;;;;;;5033109;28;20049;-69
2023/09/21 02:05:37;;;;;;;1.08;0.65;;;17.90;25.00;;;;;;5033117;28;20045;-69
2023/09/21 02:08:08;;;;;;;1.00;0.70;;;17.90;24.00;;;;;;5032656;28;20048;-67
2023/09/21 02:10:35;;;;;;;0.52;0.45;;;17.90;23.70;;;;;;5033083;28;20048;-67
2023/09/21 02:13:03;;;;;;;0.55;0.55;;;18.50;23.40;;;;;;5032929;28;20139;-68
2023/09/21 02:15:30;;;;;;;0.50;0.50;;;17.90;22.60;;;;;;5014834;28;20095;-67
2023/09/21 02:17:55;;;;;;;0.65;0.65;;;18.00;24.20;;;;;;5032705;28;20046;-68
2023/09/21 02:20:26;;;;;;;0.60;0.60;;;17.90;24.20;;;;;;5032931;28;20044;-69
2023/09/21 02:22:57;;;;;;;0.98;0.50;;;17.90;22.20;;;;;;5032787;28;20042;-67
2023/09/21 02:25:23;;;;;;;0.40;0.40;;;17.80;22.70;;;;;;5015277;28;20485;-67
2023/09/21 02:27:50;;;;;;;0.40;0.40;;;17.90;25.10;;;;;;5016978;28;20072;-63
2023/09/21 02:30:21;;;;;;;0.40;0.40;;;17.80;24.90;;;;;;5036592;28;20045;-65
2023/09/21 02:32:51;;;;;;;0.40;0.40;;;17.80;25.70;;;;;;5036484;28;20053;-65
2023/09/21 02:35:27;;;;;;;0.85;0.75;;;17.80;25.60;;;;;;5036797;28;20413;-63
2023/09/21 02:37:54;;;;;;;0.88;0.55;;;17.70;25.60;;;;;;5036719;28;20061;-64
2023/09/21 02:40:21;;;;;;;0.55;0.55;;;17.70;27.90;;;;;;5036673;28;20030;-63
2023/09/21 02:42:52;;;;;;;0.70;0.60;;;17.90;28.70;;;;;;5036297;28;20041;-63
2023/09/21 02:45:20;;;;;;;0.50;0.50;;;17.60;30.20;;;;;;5036323;28;20155;-64
2023/09/21 02:47:47;;;;;;;1.27;0.60;;;17.60;32.30;;;;;;5036593;28;20068;-64
2023/09/21 02:50:27;;;;;;;0.65;0.52;;;17.60;34.10;;;;;;5036494;28;20431;-64
2023/09/21 02:52:57;;;;;;;0.65;0.65;;;17.60;34.80;;;;;;5036405;28;20053;-64
2023/09/21 02:55:27;;;;;;;0.67;0.67;;;18.20;37.40;;;;;;5018704;28;20080;-64
2023/09/21 02:58:06;;;;;;;0.70;0.67;;;17.50;38.50;;;;;;5036088;28;20038;-65
2023/09/21 03:00:39;;;;;;;0.50;0.50;;;17.40;41.10;;;;;;5036411;28;20041;-64
2023/09/21 03:03:06;;;;;;;0.70;0.70;;;17.40;41.90;;;;;;5036013;28;20404;-64
2023/09/21 03:05:33;;;;;;;1.27;0.70;;;17.30;42.90;;;;;;5036282;28;20072;-64
2023/09/21 03:08:05;;;;;;;1.10;0.98;;;17.30;43.80;;;;;;5036072;28;20053;-64
2023/09/21 03:10:31;;;;;;;0.50;0.50;;;17.30;44.50;;;;;;5018079;28;20114;-64
2023/09/21 03:12:57;;;;;;;0.60;0.60;;;17.30;45.00;;;;;;5035984;28;20413;-64
2023/09/21 03:15:23;;;;;;;0.60;0.60;;;17.30;45.80;;;;;;5035614;28;20033;-64
2023/09/21 03:17:55;;;;;;;0.50;0.50;;;17.20;47.00;;;;;;5035956;28;20042;-64
2023/09/21 03:20:36;;;;;;;0.60;0.60;;;17.20;48.20;;;;;;5035899;28;20042;-64
2023/09/21 03:23:05;;;;;;;4.50;0.88;;;17.20;48.10;;;;;;5035901;28;20049;-64
2023/09/21 03:25:41;;;;;;;0.80;0.60;;;17.20;48.40;;;;;;5035815;28;20397;-64
2023/09/21 03:28:15;;;;;;;0.40;0.40;;;17.20;49.10;;;;;;5035794;28;20468;-64
2023/09/21 03:30:44;;;;;;;0.43;0.43;;;17.10;49.20;;;;;;5035751;28;20575;-64
2023/09/21 03:33:10;;;;;;;0.80;0.65;;;17.20;49.00;;;;;;5035701;28;20044;-64
2023/09/21 03:35:37;;;;;;;0.65;0.45;;;17.20;48.40;;;;;;5035617;28;20037;-63
2023/09/21 03:38:06;;;;;;;0.60;0.60;;;17.20;46.80;;;;;;5034969;28;20045;-63
2023/09/21 03:40:35;;;;;;;1.05;0.60;;;17.30;44.80;;;;;;5017932;28;20485;-63
2023/09/21 03:43:00;;;;;;;0.68;0.68;;;17.30;43.40;;;;;;5035507;28;20042;-64
2023/09/21 03:45:26;;;;;;;0.65;0.65;;;17.30;42.50;;;;;;5035503;28;20045;-64
2023/09/21 03:47:56;;;;;;;0.38;0.38;;;17.30;42.20;;;;;;5035414;28;20084;-64
2023/09/21 03:50:27;;;;;;;0.57;0.57;;;17.60;40.10;;;;;;5035408;28;20033;-64
2023/09/21 03:52:53;;;;;;;0.50;0.50;;;17.40;40.90;;;;;;5035217;28;20041;-64
2023/09/21 03:55:20;;;;;;;0.82;0.68;;;17.40;40.40;;;;;;5035311;28;20430;-64
2023/09/21 03:57:46;;;;;;;0.88;0.50;;;17.30;41.10;;;;;;5035250;28;20057;-64
2023/09/21 04:00:29;;;;;;;0.90;0.60;;;17.30;42.20;;;;;;5035201;28;20041;-64
2023/09/21 04:02:57;;;;;;;0.93;0.70;;;17.30;41.60;;;;;;5035167;28;20464;-64
2023/09/21 04:05:31;;;;;;;0.60;0.60;;;17.30;42.50;;;;;;5035139;28;20045;-64
2023/09/21 04:07:57;;;;;;;0.75;0.55;;;17.30;43.10;;;;;;5035020;28;20497;-64
2023/09/21 04:10:22;;;;;;;0.57;0.57;;;17.30;45.10;;;;;;5034989;28;20041;-64
2023/09/21 04:12:50;;;;;;;0.60;0.60;;;17.30;46.40;;;;;;5034780;28;20045;-64
2023/09/21 04:15:16;;;;;;;0.50;0.50;;;17.30;47.10;;;;;;5034734;28;20041;-64
2023/09/21 04:17:42;;;;;;;0.60;0.60;;;17.20;48.30;;;;;;5034835;28;20049;-65
2023/09/21 04:20:14;;;;;;;0.57;0.50;;;17.20;48.30;;;;;;5034774;28;20144;-66
2023/09/21 04:22:41;;;;;;;1.00;0.50;;;17.20;49.10;;;;;;5034770;28;20405;-64
2023/09/21 04:25:11;;;;;;;1.08;0.63;;;17.10;49.80;;;;;;5034711;28;20477;-64
2023/09/21 04:27:39;;;;;;;0.50;0.40;;;17.20;50.40;;;;;;5034685;28;20045;-64
2023/09/21 04:30:09;;;;;;;0.95;0.47;;;17.10;50.70;;;;;;5034300;28;20076;-64
2023/09/21 04:32:36;;;;;;;0.60;0.50;;;17.10;51.40;;;;;;5034558;28;20037;-64
2023/09/21 04:35:05;;;;;;;0.50;0.50;;;17.10;52.20;;;;;;5034525;28;20044;-64
2023/09/21 04:37:33;;;;;;;0.65;0.45;;;17.10;52.90;;;;;;5034430;28;20084;-66
2023/09/21 04:40:06;;;;;;;0.50;0.45;;;17.10;52.70;;;;;;5016450;28;20081;-66
2023/09/21 04:42:35;;;;;;;0.45;0.45;;;17.00;53.20;;;;;;5034366;28;20382;-66
2023/09/21 04:45:01;;;;;;;0.40;0.40;;;17.10;53.60;;;;;;5034282;28;20036;-66
2023/09/21 04:47:27;;;;;;;0.60;0.60;;;17.10;53.70;;;;;;5034190;28;20037;-66
2023/09/21 04:49:56;;;;;;;0.75;0.60;;;17.00;54.00;;;;;;5033559;28;20037;-70
2023/09/21 04:52:22;;;;;;;0.73;0.60;;;17.10;54.00;;;;;;5033931;28;20445;-67
2023/09/21 04:54:51;;;;;;;0.45;0.45;;;17.10;54.40;;;;;;5016481;28;20049;-68
2023/09/21 04:57:18;;;;;;;0.65;0.60;;;17.00;54.40;;;;;;5034071;28;20405;-69
2023/09/21 04:59:44;;;;;;;0.50;0.47;;;17.10;54.40;;;;;;5016140;28;20402;-69
2023/09/21 05:02:10;;;;;;;1.90;0.70;;;16.90;56.00;;;;;;5033632;28;20038;-69
2023/09/21 05:04:36;;;;;;;0.60;0.50;;;17.00;55.20;;;;;;5033709;28;20037;-67
2023/09/21 05:07:01;;;;;;;0.50;0.50;;;17.10;54.70;;;;;;5033532;28;20044;-67
2023/09/21 05:09:27;;;;;;;0.70;0.70;;;17.00;55.30;;;;;;5015807;28;20132;-68
2023/09/21 05:11:53;;;;;;;1.60;0.52;;;17.00;55.50;;;;;;5033812;28;20044;-68
2023/09/21 05:14:21;;;;;;;0.60;0.52;;;17.00;55.10;;;;;;5016108;28;20107;-67
2023/09/21 05:16:47;;;;;;;0.40;0.40;;;17.30;54.30;;;;;;5033445;28;20053;-69
2023/09/21 05:19:13;;;;;;;0.40;0.40;;;17.20;53.70;;;;;;5033756;28;20044;-69
2023/09/21 05:21:40;;;;;;;0.40;0.40;;;17.20;52.80;;;;;;5033549;28;20383;-67
2023/09/21 05:24:07;;;;;;;0.70;0.70;;;17.30;52.70;;;;;;5033386;28;20046;-68
2023/09/21 05:26:32;;;;;;;0.90;0.50;;;17.30;51.90;;;;;;5033242;28;20069;-69
2023/09/21 05:28:58;;;;;;;0.50;0.50;;;17.40;49.90;;;;;;5015493;28;20076;-69
2023/09/21 05:31:24;;;;;;;1.65;0.65;;;17.50;46.10;;;;;;5033254;28;20481;-68
2023/09/21 05:33:49;;;;;;;0.95;0.60;;;17.50;42.60;;;;;;5015557;28;20038;-68
2023/09/21 05:36:15;;;;;;;0.57;0.50;;;17.60;38.80;;;;;;5015485;28;20029;-69
2023/09/21 05:38:41;;;;;;;0.77;0.60;;;17.70;35.30;;;;;;5015481;28;20049;-68
2023/09/21 05:41:06;;;;;;;0.95;0.65;;;17.80;32.50;;;;;;5015600;28;20505;-70
2023/09/21 05:43:32;;;;;;;0.68;0.60;;;17.90;27.20;;;;;;5033318;28;20043;-70
2023/09/21 05:45:59;;;;;;;0.50;0.40;;;17.90;28.50;;;;;;5033192;28;20171;-70
2023/09/21 05:48:24;;;;;;;0.52;0.52;;;18.30;23.30;;;;;;5033249;28;20405;-71
2023/09/21 05:50:50;;;;;;;0.50;0.50;;;18.10;24.40;;;;;;5015317;28;20132;-64
2023/09/21 05:53:16;;;;;;;0.40;0.40;;;18.10;23.50;;;;;;5032797;28;20048;-63
2023/09/21 05:55:45;;;;;;;0.52;0.50;;;18.20;20.80;;;;;;5032881;28;20037;-64
2023/09/21 05:58:10;;;;;;;0.50;0.50;;;18.20;18.90;;;;;;5032918;28;20037;-65
2023/09/21 06:00:36;;;;;;;1.02;0.90;;;18.40;16.20;;;;;;5033000;28;20047;-62
2023/09/21 06:03:02;;;;;;;1.70;0.60;;;18.20;17.60;;;;;;5032754;28;20045;-62
2023/09/21 06:05:29;;;;;;;0.65;0.60;;;18.20;16.20;;;;;;5015004;28;20049;-62
2023/09/21 06:07:55;;;;;;;0.77;0.40;;;18.30;14.70;;;;;;5015046;28;20045;-62
2023/09/21 06:10:22;;;;;;;0.57;0.55;;;18.30;13.60;;;;;;5015350;28;20060;-70
2023/09/21 06:12:48;;;;;;;2.05;0.70;;;18.30;13.70;;;;;;5032900;28;20120;-68
2023/09/21 06:15:15;;;;;;;1.27;0.60;;;18.40;11.80;;;;;;5015272;28;20045;-70
2023/09/21 06:17:40;;;;;;;0.47;0.47;;;18.60;10.20;;;;;;5032766;28;20057;-69
2023/09/21 06:20:07;;;;;;;0.40;0.40;;;18.40;10.60;;;;;;5032968;28;20041;-69
2023/09/21 06:22:33;;;;;;;0.50;0.50;;;18.40;6.90;;;;;;5015006;28;20407;-69
2023/09/21 06:24:59;;;;;;;0.93;0.57;;;18.50;5.70;;;;;;5014805;28;20050;-69
2023/09/21 06:27:25;;;;;;;0.57;0.55;;;18.50;5.20;;;;;;5015192;28;20525;-69
2023/09/21 06:29:51;;;;;;;0.50;0.50;;;18.50;4.40;;;;;;5032563;28;20422;-70
2023/09/21 06:32:18;;;;;;;0.88;0.65;;;18.60;3.30;;;;;;5032871;28;20037;-70
2023/09/21 06:34:45;;;;;;;1.52;0.52;;;18.60;1.00;;;;;;5032532;28;20041;-69
2023/09/21 06:37:12;;;;;;;0.50;0.50;;;18.70;1.00;;;;;;5032822;28;20048;-69
2023/09/21 06:39:37;;;;;;;0.65;0.65;;;18.70;1.00;;;;;;5032729;28;20481;-70
2023/09/21 06:42:03;;;;;;;0.90;0.70;;;18.70;1.90;;;;;;5032659;28;20080;-68
2023/09/21 06:44:29;;;;;;;0.60;0.60;;;18.70;1.00;;;;;;4998438;28;20092;-68
2023/09/21 06:46:55;;;;;;;0.43;0.43;;;18.70;2.50;;;;;;5014568;28;20409;-68
2023/09/21 06:49:21;;;;;;;0.57;0.50;;;18.70;4.00;;;;;;5014699;28;20057;-68
2023/09/21 06:51:49;;;;;;;1.02;0.80;;;18.80;3.90;;;;;;4998292;28;20128;-68
2023/09/21 06:54:15;;;;;;;0.65;0.57;;;18.80;6.10;;;;;;5032144;28;20045;-70
2023/09/21 06:56:40;;;;;;;1.38;0.50;;;18.70;6.10;;;;;;5014647;28;20160;-70
2023/09/21 06:59:06;;;;;;;0.68;0.60;;;18.70;6.40;;;;;;5014841;28;20107;-71
2023/09/21 07:01:35;;;;;;;0.50;0.50;;;18.80;4.50;;;;;;5014466;28;20037;-70
2023/09/21 07:04:01;;;;;;;1.05;0.68;;;18.80;3.90;;;;;;5014463;28;20448;-70
2023/09/21 07:06:26;;;;;;;0.55;0.50;;;19.00;1.40;;;;;;5032188;28;20041;-71
2023/09/21 07:08:52;;;;;;;0.60;0.60;;;18.70;2.40;;;;;;5032331;28;20038;-71
2023/09/21 07:11:20;;;;;;;1.77;0.85;;;18.80;1.80;;;;;;5032624;28;20509;-70
2023/09/21 07:13:47;;;;;;;1.50;0.50;;;18.90;2.20;;;;;;5016093;28;20581;-70
2023/09/21 07:16:13;;;;;;;0.55;0.55;;;18.90;1.00;;;;;;5035579;28;20060;-69
2023/09/21 07:18:40;;;;;;;0.70;0.63;;;19.00;1.00;;;;;;5018343;28;20079;-70
2023/09/21 07:21:06;;;;;;;0.50;0.50;;;19.00;1.00;;;;;;5017864;28;20584;-69
2023/09/21 07:23:31;;;;;;;0.90;0.65;;;19.00;1.00;;;;;;5017827;28;20053;-70
2023/09/21 07:25:58;;;;;;;0.60;0.52;;;18.90;3.00;;;;;;5017952;28;20137;-70
2023/09/21 07:28:24;;;;;;;1.23;0.73;;;19.00;2.60;;;;;;5001395;28;20049;-70
2023/09/21 07:30:52;;;;;;;0.70;0.70;;;19.00;3.00;;;;;;5017849;28;20041;-70
2023/09/21 07:33:20;;;;;;;0.65;0.50;;;19.00;2.00;;;;;;5035323;28;20053;-70
2023/09/21 07:35:47;;;;;;;2.60;0.82;;;19.10;5.00;;;;;;5017753;28;20540;-69
2023/09/21 07:38:13;;;;;;;1.20;0.90;;;19.10;5.70;;;;;;5017633;28;20452;-68
2023/09/21 07:40:38;;;;;;;0.60;0.60;;;19.10;5.50;;;;;;5035294;28;20065;-70
2023/09/21 07:43:06;;;;;;;0.63;0.60;;;19.10;5.30;;;;;;5001295;28;20129;-72
2023/09/21 07:45:32;;;;;;;0.70;0.40;;;19.40;6.40;;;;;;5035468;28;20591;-70
2023/09/21 07:47:58;;;;;;;0.70;0.60;;;19.20;6.30;;;;;;5035293;28;20045;-71
2023/09/21 07:50:26;;;;;;;1.23;0.50;;;19.30;2.50;;;;;;5035337;28;20481;-71
2023/09/21 07:52:53;;;;;;;1.85;0.82;;;19.40;2.20;;;;;;5017129;28;20087;-71
2023/09/21 07:55:19;;;;;;;0.40;0.40;;;19.50;1.00;;;;;;5017241;28;20064;-70
2023/09/21 07:57:47;;;;;;;0.60;0.60;;;19.50;1.80;;;;;;5035079;28;20485;-68
2023/09/21 08:00:15;;;;;;;0.60;0.50;;;19.50;1.00;;;;;;5035098;28;20041;-71
2023/09/21 08:02:41;;;;;;;0.60;0.60;;;19.60;1.00;;;;;;5034977;28;20456;-71
2023/09/21 08:05:09;;;;;;;0.95;0.70;;;19.60;1.00;;;;;;5034981;28;20075;-70
2023/09/21 08:07:36;;;;;;;0.95;0.68;;;19.70;1.00;;;;;;5000744;28;20128;-71
2023/09/21 08:10:05;;;;;;;0.63;0.63;;;19.60;1.00;;;;;;5016873;28;20041;-70
2023/09/21 08:12:31;;;;;;;0.65;0.52;;;19.60;1.00;;;;;;5034910;28;20034;-69
2023/09/21 08:15:00;;;;;;;0.63;0.52;;;19.50;1.00;;;;;;5034793;28;20468;-69
2023/09/21 08:17:30;;;;;;;0.70;0.63;;;19.60;1.00;;;;;;5016592;28;20052;-69
2023/09/21 08:20:00;;;;;;;0.60;0.60;;;19.50;1.00;;;;;;5016731;28;20067;-69
2023/09/21 08:22:26;;;;;;;0.60;0.52;;;19.40;1.00;;;;;;5017142;28;20504;-62
2023/09/21 08:24:52;;;;;;;0.50;0.50;;;19.40;1.00;;;;;;5034422;28;20041;-63
2023/09/21 08:27:18;;;;;;;0.70;0.70;;;19.40;1.00;;;;;;5016842;28;20420;-63
2023/09/21 08:29:44;;;;;;;0.50;0.43;;;19.40;1.00;;;;;;5034299;28;20033;-64
2023/09/21 08:32:09;;;;;;;0.50;0.50;;;19.40;2.70;;;;;;5034438;28;20064;-63
2023/09/21 08:34:35;;;;;;;0.55;0.55;;;19.20;8.90;;;;;;5016382;28;20477;-63
2023/09/21 08:37:00;;;;;;;0.50;0.50;;;19.20;11.40;;;;;;5034487;28;20039;-63
2023/09/21 08:39:26;;;;;;;0.60;0.60;;;19.20;16.50;;;;;;5034438;28;20077;-63
2023/09/21 08:41:52;;;;;;;0.47;0.47;;;19.20;21.20;;;;;;5034089;28;20041;-63
2023/09/21 08:44:18;;;;;;;0.63;0.60;;;19.10;31.40;;;;;;5034235;28;20091;-62
2023/09/21 08:46:45;;;;;;;0.50;0.45;;;19.10;28.60;;;;;;5034338;28;20041;-64
2023/09/21 08:49:12;;;;;;;0.75;0.60;;;19.10;31.70;;;;;;5034272;28;20095;-64
2023/09/21 08:51:40;;;;;;;0.50;0.50;;;19.10;34.00;;;;;;5034196;28;20432;-65
2023/09/21 08:54:11;;;;;;;0.65;0.63;;;19.10;37.80;;;;;;5034024;28;20041;-64
2023/09/21 08:56:38;;;;;;;0.60;0.60;;;19.00;41.50;;;;;;5033820;28;20037;-65
2023/09/21 08:59:06;;;;;;;0.80;0.80;;;19.00;41.60;;;;;;5033860;28;20037;-65
2023/09/21 09:01:32;;;;;;;1.52;0.60;;;18.90;45.20;;;;;;5033803;28;20046;-65
2023/09/21 09:03:58;;;;;;;0.70;0.70;;;18.90;47.80;;;;;;5033724;28;20060;-64
2023/09/21 09:06:24;;;;;;;0.73;0.60;;;19.50;51.50;;;;;;5033799;28;20037;-64
2023/09/21 09:08:51;;;;;;;0.70;0.63;;;18.80;54.70;;;;;;5033477;28;20077;-65
2023/09/21 09:11:37;;;;;;;0.77;0.70;;;18.80;59.00;;;;;;5033825;28;20069;-65
2023/09/21 09:14:04;;;;;;;0.60;0.60;;;18.70;67.10;;;;;;5033714;28;20505;-64
2023/09/21 09:16:31;;;;;;;0.70;0.70;;;18.70;66.00;;;;;;5033424;28;20460;-65
2023/09/21 09:19:02;;;;;;;0.52;0.52;;;18.50;70.20;;;;;;5033647;28;20404;-65
2023/09/21 09:21:28;;;;;;;0.80;0.70;;;18.50;73.80;;;;;;5033768;28;20033;-66
2023/09/21 09:23:55;;;;;;;0.50;0.50;;;18.50;74.60;;;;;;5033353;28;20041;-65
2023/09/21 09:26:21;;;;;;;0.80;0.80;;;18.50;76.60;;;;;;5033648;28;20037;-65
2023/09/21 09:28:47;;;;;;;2.22;0.80;;;18.40;80.30;;;;;;5015546;28;20049;-66
2023/09/21 09:31:14;;;;;;;0.60;0.60;;;18.60;83.30;;;;;;5033873;28;20484;-70
2023/09/21 09:33:40;;;;;;;0.80;0.50;;;18.40;87.10;;;;;;5033138;28;20037;-70
2023/09/21 09:36:07;;;;;;;0.70;0.70;;;18.30;88.60;;;;;;5015092;28;20206;-70
2023/09/21 09:38:33;;;;;;;1.25;0.90;;;18.30;90.50;;;;;;5015408;28;20037;-70
2023/09/21 09:41:04;;;;;;;0.60;0.60;;;18.20;91.90;;;;;;5015359;28;20044;-70
2023/09/21 09:43:31;;;;;;;0.70;0.70;;;18.20;95.30;;;;;;5033382;28;20378;-72
2023/09/21 09:46:02;;;;;;;1.80;0.80;;;18.20;96.30;;;;;;5033324;28;20045;-70
2023/09/21 09:48:30;;;;;;;2.10;0.60;;;18.20;96.40;;;;;;5033083;28;20076;-70
2023/09/21 09:51:03;;;;;;;0.52;0.52;;;18.20;97.20;;;;;;5032966;28;20079;-69
2023/09/21 09:53:31;;;;;;;0.60;0.60;;;18.20;98.70;;;;;;5033162;28;20085;-69
2023/09/21 09:56:00;;;;;;;0.70;0.60;;;18.20;98.70;;;;;;5015205;28;20056;-70
2023/09/21 09:58:27;;;;;;;0.85;0.77;;;18.20;99.40;;;;;;5032875;28;20116;-69
2023/09/21 10:00:53;;;;;;;0.60;0.60;;;18.00;99.90;;;;;;5015436;28;20033;-70
2023/09/21 10:03:19;;;;;;;0.57;0.57;;;18.10;99.90;;;;;;5015117;28;20128;-70
2023/09/21 10:05:46;;;;;;;0.60;0.60;;;18.10;99.90;;;;;;5015211;28;20061;-69
2023/09/21 10:08:12;;;;;;;1.75;0.90;;;18.00;99.90;;;;;;5032885;28;20045;-72
2023/09/21 10:10:44;;;;;;;0.95;0.82;;;18.00;99.90;;;;;;5015470;28;20051;-71
2023/09/21 10:13:11;;;;;;;0.63;0.60;;;18.00;99.90;;;;;;5015053;28;20044;-71
2023/09/21 10:15:36;;;;;;;3.17;0.95;;;17.90;99.90;;;;;;5032543;28;20042;-70
2023/09/21 10:18:04;;;;;;;0.90;0.80;;;17.90;99.90;;;;;;5032661;28;20060;-70
2023/09/21 10:20:33;;;;;;;0.65;0.60;;;17.80;99.90;;;;;;5015053;28;20046;-70
2023/09/21 10:23:09;;;;;;;0.60;0.60;;;17.70;99.90;;;;;;5032649;28;20387;-70
2023/09/21 10:25:45;;;;;;;2.45;0.85;;;17.60;99.90;;;;;;5015037;28;20424;-70
2023/09/21 10:28:29;;;;;;;0.70;0.70;;;17.60;99.90;;;;;;5032930;28;20370;-69
2023/09/21 10:31:09;;;;;;;0.73;0.73;;;17.50;99.90;;;;;;5014924;28;20037;-70
2023/09/21 10:33:51;;;;;;;0.65;0.60;;;17.40;99.90;;;;;;5032511;28;20053;-72
2023/09/21 10:36:30;;;;;;;0.55;0.55;;;17.30;99.90;;;;;;5032541;28;20092;-71
2023/09/21 10:39:11;;;;;;;0.47;0.38;;;17.20;99.90;;;;;;5015179;28;20080;-70
2023/09/21 10:41:43;;;;;;;0.28;0.28;;;17.00;99.90;;;;;;5015048;28;20129;-71
2023/09/21 10:44:09;;;;;;;0.20;0.20;;;16.80;99.90;;;;;;5014740;28;20477;-71
2023/09/21 10:46:37;;;;;;;0.30;0.30;;;;;;;;;;5032588;28;20091;-71
2023/09/21 10:49:03;;;;;;;0.40;0.40;;;;;;;;;;5017198;28;20100;-71
2023/09/21 10:51:29;;;;;;;0.40;0.40;;;16.30;99.90;;;;;;5018761;28;20037;-64
2023/09/21 10:53:59;;;;;;;0.40;0.40;;;17.10;99.90;;;;;;5036102;28;20049;-64
2023/09/21 10:56:28;;;;;;;0.35;0.35;;;16.40;99.90;;;;;;5018400;28;20041;-64
2023/09/21 10:58:54;;;;;;;0.20;0.20;;;16.20;99.90;;;;;;5036353;28;20034;-64
2023/09/21 11:01:21;;;;;;;0.30;0.30;;;16.60;99.90;;;;;;5036674;28;20044;-64
2023/09/21 11:03:48;;;;;;;0.95;0.50;;;16.20;99.90;;;;;;5038361;28;20077;-65
2023/09/21 11:06:17;;;;;;;0.20;0.20;;;16.20;99.90;;;;;;5003227;28;20148;-65
2023/09/21 11:08:47;;;;;;;0.38;0.38;;;15.90;99.90;;;;;;5019745;28;20045;-65
2023/09/21 11:11:14;;;;;;;0.30;0.30;;;16.50;99.90;;;;;;5019551;28;20612;-66
2023/09/21 11:13:40;;;;;;;0.30;0.30;;;16.30;99.90;;;;;;5019373;28;20060;-65
2023/09/21 11:16:06;;;;;;;0.40;0.40;;;16.70;99.90;;;;;;5036596;28;20054;-64
2023/09/21 11:18:32;;;;;;;0.30;0.30;;;16.20;99.90;;;;;;5036263;28;20069;-65
2023/09/21 11:20:58;;;;;;;0.38;0.38;;;16.20;99.90;;;;;;5037078;28;20037;-65
2023/09/21 11:23:24;;;;;;;0.35;0.35;;;16.80;99.90;;;;;;5037116;28;20047;-65
2023/09/21 11:25:50;;;;;;;0.20;0.20;;;16.30;99.90;;;;;;5037259;28;20045;-65
2023/09/21 11:28:20;;;;;;;0.30;0.30;;;16.20;99.90;;;;;;5037208;28;20056;-66
2023/09/21 11:30:47;;;;;;;0.30;0.30;;;16.50;99.90;;;;;;5036715;28;20092;-65
2023/09/21 11:33:12;;;;;;;0.40;0.40;;;16.40;99.90;;;;;;5036994;28;20037;-65
2023/09/21 11:35:38;;;;;;;0.32;0.32;;;16.30;99.90;;;;;;5037029;28;20041;-64
2023/09/21 11:38:04;;;;;;;0.30;0.30;;;16.40;99.90;;;;;;5037292;28;20119;-65
2023/09/21 11:40:31;;;;;;;0.40;0.40;;;16.50;99.90;;;;;;5037018;28;20044;-65
2023/09/21 11:42:59;;;;;;;0.32;0.32;;;16.40;99.90;;;;;;5036703;28;20041;-65
2023/09/21 11:45:26;;;;;;;0.30;0.30;;;16.40;99.90;;;;;;5037152;28;20478;-65
2023/09/21 11:47:56;;;;;;;0.40;0.40;;;16.50;99.90;;;;;;5037192;28;20121;-65
2023/09/21 11:50:26;;;;;;;;;;;16.30;99.90;;;;;;5036995;28;20474;-65
2023/09/21 11:52:56;;;;;;;0.35;0.35;;;16.40;99.90;;;;;;5036457;28;19921;-65
2023/09/21 11:55:29;;;;;;;0.20;0.20;;;16.30;99.90;;;;;;5036678;28;20452;-65
2023/09/21 11:58:13;;;;;;;0.30;0.30;;;16.50;99.90;;;;;;5036674;28;20047;-65
2023/09/21 12:00:43;;;;;;;0.50;0.50;;;16.50;99.90;;;;;;5036457;28;20405;-69
2023/09/21 12:03:17;;;;;;;0.50;0.50;;;16.60;99.90;;;;;;5019281;28;20041;-70
2023/09/21 12:05:43;;;;;;;0.30;0.30;;;16.60;99.90;;;;;;5019448;28;20401;-70
2023/09/21 12:08:11;;;;;;;0.30;0.30;;;17.60;99.90;;;;;;5019453;28;20045;-70
2023/09/21 12:10:36;;;;;;;0.30;0.30;;;17.20;99.90;;;;;;5019056;28;20124;-70
2023/09/21 12:13:03;;;;;;;0.25;0.25;;;17.10;99.90;;;;;;5018790;28;20088;-65
2023/09/21 12:15:29;;;;;;;0.30;0.30;;;17.00;99.90;;;;;;5036536;28;20092;-65
2023/09/21 12:17:55;;;;;;;0.30;0.30;;;17.60;99.90;;;;;;5036487;28;20505;-64
2023/09/21 12:20:21;;;;;;;0.20;0.20;;;17.20;99.90;;;;;;5018521;28;20053;-66
2023/09/21 12:22:47;;;;;;;0.30;0.30;;;17.10;99.90;;;;;;5018129;28;20083;-64
2023/09/21 12:25:14;;;;;;;0.30;0.30;;;16.90;99.90;;;;;;5018948;28;20489;-66
2023/09/21 12:27:42;;;;;;;0.30;0.30;;;16.90;99.90;;;;;;5036124;28;20074;-66
2023/09/21 12:30:12;;;;;;;0.35;0.30;;;16.50;99.90;;;;;;5036112;28;20048;-65
2023/09/21 12:32:39;;;;;;;0.57;0.40;;;16.60;99.90;;;;;;5035814;28;20041;-65
2023/09/21 12:35:07;;;;;;;0.30;0.30;;;16.60;99.90;;;;;;5036270;28;20047;-65
2023/09/21 12:37:33;;;;;;;0.40;0.40;;;16.50;99.90;;;;;;5035819;28;20045;-66
2023/09/21 12:39:59;;;;;;;0.40;0.40;;;16.40;99.90;;;;;;5036292;28;20037;-65
2023/09/21 12:42:25;;;;;;;0.40;0.40;;;17.10;99.90;;;;;;5036394;28;20037;-65
2023/09/21 12:44:50;;;;;;;0.30;0.30;;;16.40;99.90;;;;;;5036230;28;20386;-65
2023/09/21 12:47:16;;;;;;;0.40;0.40;;;17.10;99.90;;;;;;5036302;28;20042;-65
2023/09/21 12:49:42;;;;;;;0.63;0.40;;;16.60;99.90;;;;;;5036490;28;20041;-65
2023/09/21 12:52:07;;;;;;;0.40;0.40;;;16.40;99.90;;;;;;5035873;28;20481;-65
2023/09/21 12:54:33;;;;;;;0.20;0.20;;;16.90;99.90;;;;;;5035589;28;20492;-65